Time;durP1;ratioP1;P1;durP2;ratioP2;P2;SDS_P1;SDS_P2;PMS_P1;PMS_P2;Temp;Humidity;BMP_temperature;BMP_pressure;BME280_temperature;BME280_humidity;BME280_pressure;Samples;Min_cycle;Max_cycle;Signal;HPM_P1;HPM_P2
2021/09/25 00:01:53;;;;;;;1.75;1.65;;;20.10;44.30;;;;;;5050650;28;20200;-47
2021/09/25 00:04:26;;;;;;;2.75;1.88;;;20.10;44.30;;;;;;5071227;28;20613;-60
2021/09/25 00:06:56;;;;;;;1.92;1.75;;;20.10;44.30;;;;;;5073880;28;20558;-61
2021/09/25 00:09:28;;;;;;;1.95;1.63;;;20.10;44.30;;;;;;5064213;28;20207;-46
2021/09/25 00:11:59;;;;;;;2.05;1.85;;;20.10;44.40;;;;;;5053373;28;20234;-47
2021/09/25 00:14:29;;;;;;;2.95;1.80;;;20.20;44.50;;;;;;5066814;28;20203;-51
2021/09/25 00:17:00;;;;;;;2.28;1.60;;;20.20;44.70;;;;;;5072637;28;20254;-50
2021/09/25 00:19:30;;;;;;;1.88;1.65;;;20.20;44.80;;;;;;5072868;28;20253;-46
2021/09/25 00:22:01;;;;;;;2.88;1.65;;;20.20;44.90;;;;;;5073545;28;20230;-49
2021/09/25 00:24:33;;;;;;;2.15;1.85;;;20.20;45.00;;;;;;5073034;28;20191;-48
2021/09/25 00:27:03;;;;;;;5.03;2.80;;;20.30;45.00;;;;;;5073641;28;20230;-48
2021/09/25 00:29:34;;;;;;;4.03;2.28;;;20.30;45.00;;;;;;5073557;28;20289;-49
2021/09/25 00:32:04;;;;;;;4.80;2.63;;;20.30;45.00;;;;;;5073754;28;20485;-50
2021/09/25 00:34:35;;;;;;;3.35;2.58;;;20.30;45.00;;;;;;5072544;28;20230;-47
2021/09/25 00:37:05;;;;;;;3.75;2.70;;;20.30;45.00;;;;;;5054428;28;20306;-47
2021/09/25 00:39:38;;;;;;;6.03;2.90;;;20.40;45.20;;;;;;5053750;28;20226;-51
2021/09/25 00:42:08;;;;;;;6.43;3.00;;;20.40;45.10;;;;;;5053343;28;20234;-50
2021/09/25 00:44:39;;;;;;;6.75;3.28;;;20.40;45.20;;;;;;5053333;28;20227;-47
2021/09/25 00:47:11;;;;;;;8.05;3.72;;;20.50;45.20;;;;;;5053417;28;20200;-49
2021/09/25 00:49:41;;;;;;;8.10;3.78;;;20.50;45.20;;;;;;5053015;28;20199;-46
2021/09/25 00:52:12;;;;;;;6.50;3.85;;;20.50;45.10;;;;;;5053169;28;20235;-48
2021/09/25 00:54:44;;;;;;;8.30;3.90;;;20.50;45.20;;;;;;5052719;28;20223;-46
2021/09/25 00:57:14;;;;;;;6.28;4.07;;;20.50;45.20;;;;;;5052756;28;20638;-51
2021/09/25 00:59:45;;;;;;;6.40;4.18;;;20.50;45.20;;;;;;5053453;28;20546;-51
2021/09/25 01:02:17;;;;;;;7.78;3.55;;;20.60;45.30;;;;;;5056459;28;20235;-48
2021/09/25 01:04:47;;;;;;;7.10;3.97;;;20.60;45.30;;;;;;5072339;28;20234;-48
2021/09/25 01:07:18;;;;;;;7.07;4.10;;;20.60;45.30;;;;;;5072078;28;20234;-48
2021/09/25 01:09:50;;;;;;;8.02;3.88;;;20.60;45.30;;;;;;5072121;28;20234;-48
2021/09/25 01:12:21;;;;;;;7.25;4.00;;;20.60;45.30;;;;;;5071886;28;20729;-48
2021/09/25 01:14:51;;;;;;;8.85;4.18;;;20.60;45.30;;;;;;5071534;28;20697;-47
2021/09/25 01:17:22;;;;;;;8.30;3.70;;;20.70;45.30;;;;;;5072215;28;20544;-49
2021/09/25 01:19:52;;;;;;;6.25;3.42;;;20.70;45.40;;;;;;5072808;28;20201;-53
2021/09/25 01:22:25;;;;;;;7.78;3.88;;;20.70;45.30;;;;;;5072739;28;20288;-50
2021/09/25 01:24:55;;;;;;;7.88;3.97;;;20.70;45.40;;;;;;5072917;28;20199;-50
2021/09/25 01:27:28;;;;;;;5.22;3.60;;;20.80;45.40;;;;;;5071955;28;20246;-49
2021/09/25 01:30:00;;;;;;;9.48;3.75;;;20.80;45.40;;;;;;5072383;28;20674;-60
2021/09/25 01:32:31;;;;;;;5.15;3.20;;;20.80;45.40;;;;;;5072410;28;20202;-46
2021/09/25 01:35:01;;;;;;;5.13;3.20;;;20.80;45.40;;;;;;5072907;28;20245;-54
2021/09/25 01:37:33;;;;;;;5.15;3.30;;;20.80;45.30;;;;;;5072411;28;20262;-47
2021/09/25 01:40:04;;;;;;;6.18;3.30;;;20.80;45.30;;;;;;5072431;28;20630;-55
2021/09/25 01:42:34;;;;;;;6.38;3.55;;;20.90;45.40;;;;;;5072458;28;20238;-51
2021/09/25 01:45:05;;;;;;;5.28;3.42;;;20.90;45.30;;;;;;5072299;28;20614;-51
2021/09/25 01:47:35;;;;;;;6.95;3.20;;;20.90;45.30;;;;;;5071926;28;20262;-47
2021/09/25 01:50:06;;;;;;;4.45;2.85;;;20.90;45.30;;;;;;5071816;28;20199;-49
2021/09/25 01:52:39;;;;;;;4.80;3.15;;;20.90;45.40;;;;;;5072331;28;20233;-46
2021/09/25 01:55:10;;;;;;;5.22;3.03;;;21.00;45.50;;;;;;5072568;28;20234;-53
2021/09/25 01:57:40;;;;;;;5.50;3.05;;;21.00;45.50;;;;;;5072213;28;20311;-53
2021/09/25 02:00:11;;;;;;;4.93;2.72;;;20.90;45.50;;;;;;5071840;28;20253;-54
2021/09/25 02:02:42;;;;;;;4.43;2.60;;;21.00;45.60;;;;;;5071925;28;20233;-59
2021/09/25 02:05:15;;;;;;;4.63;2.70;;;21.00;45.70;;;;;;5071835;28;20235;-58
2021/09/25 02:07:47;;;;;;;4.05;2.72;;;21.10;45.80;;;;;;5071719;28;20222;-48
2021/09/25 02:10:18;;;;;;;4.47;2.95;;;21.10;45.90;;;;;;5071939;28;20280;-52
2021/09/25 02:12:48;;;;;;;4.88;2.90;;;21.10;45.90;;;;;;5072052;28;20236;-56
2021/09/25 02:15:18;;;;;;;4.20;2.75;;;21.10;45.90;;;;;;5071603;28;20245;-47
2021/09/25 02:17:49;;;;;;;5.43;2.97;;;21.10;45.90;;;;;;5071335;28;20258;-53
2021/09/25 02:20:19;;;;;;;4.38;2.67;;;21.20;46.00;;;;;;5071100;28;20536;-53
2021/09/25 02:22:52;;;;;;;5.15;2.80;;;21.20;46.00;;;;;;5071400;28;20568;-47
2021/09/25 02:25:22;;;;;;;5.18;2.70;;;21.20;46.00;;;;;;5071114;28;20219;-48
2021/09/25 02:27:53;;;;;;;4.47;2.92;;;21.20;46.10;;;;;;5068582;28;20746;-46
2021/09/25 02:30:26;;;;;;;4.07;2.65;;;21.20;46.10;;;;;;5051402;28;20211;-48
2021/09/25 02:32:59;;;;;;;4.50;2.50;;;21.20;46.20;;;;;;5060873;28;20203;-57
2021/09/25 02:35:30;;;;;;;3.60;2.30;;;21.20;46.80;;;;;;5072271;28;20689;-48
2021/09/25 02:38:02;;;;;;;3.45;2.45;;;21.20;46.20;;;;;;5071415;28;20670;-51
2021/09/25 02:40:33;;;;;;;4.07;2.38;;;21.20;46.30;;;;;;5071343;28;20244;-47
2021/09/25 02:43:03;;;;;;;4.30;2.60;;;21.20;46.30;;;;;;5071139;28;20235;-59
2021/09/25 02:45:33;;;;;;;4.50;2.63;;;21.20;46.40;;;;;;5071362;28;20226;-53
2021/09/25 02:48:04;;;;;;;3.70;2.50;;;21.20;46.50;;;;;;5071140;28;20257;-53
2021/09/25 02:50:34;;;;;;;4.00;2.33;;;21.20;46.60;;;;;;5070816;28;20238;-53
2021/09/25 02:53:07;;;;;;;2.60;1.70;;;21.20;46.60;;;;;;5070722;28;20366;-51
2021/09/25 02:55:37;;;;;;;3.13;2.03;;;21.20;46.70;;;;;;5071041;28;20237;-48
2021/09/25 02:58:07;;;;;;;2.97;1.88;;;21.20;46.70;;;;;;5071150;28;20313;-50
2021/09/25 03:00:38;;;;;;;2.08;1.77;;;21.20;46.80;;;;;;5071161;28;20218;-47
2021/09/25 03:03:08;;;;;;;2.65;1.50;;;21.20;46.90;;;;;;5070946;28;20220;-49
2021/09/25 03:05:39;;;;;;;3.05;1.80;;;21.20;46.90;;;;;;5071183;28;20741;-47
2021/09/25 03:08:13;;;;;;;2.72;1.45;;;21.20;47.00;;;;;;5071226;28;20246;-47
2021/09/25 03:10:43;;;;;;;3.17;1.73;;;21.20;47.10;;;;;;5071540;28;20566;-49
2021/09/25 03:13:14;;;;;;;3.40;1.58;;;21.20;47.30;;;;;;5071274;28;20198;-47
2021/09/25 03:15:44;;;;;;;5.13;1.80;;;21.20;47.30;;;;;;5069921;28;20234;-47
2021/09/25 03:18:15;;;;;;;1.65;1.30;;;21.20;47.40;;;;;;5065517;28;20227;-47
2021/09/25 03:20:45;;;;;;;1.88;1.30;;;21.20;47.50;;;;;;5070239;28;20282;-47
2021/09/25 03:23:18;;;;;;;3.30;1.30;;;21.20;47.50;;;;;;5069392;28;20238;-50
2021/09/25 03:25:48;;;;;;;1.90;1.40;;;21.20;47.60;;;;;;5068445;28;20617;-52
2021/09/25 03:28:18;;;;;;;1.60;1.40;;;21.20;47.70;;;;;;5068491;28;20327;-58
2021/09/25 03:30:49;;;;;;;2.35;1.20;;;21.20;47.70;;;;;;5069703;28;20207;-46
2021/09/25 03:33:19;;;;;;;2.42;1.50;;;21.20;47.80;;;;;;5068653;28;20278;-51
2021/09/25 03:35:50;;;;;;;2.03;1.00;;;21.20;47.90;;;;;;5065914;28;20226;-51
2021/09/25 03:38:24;;;;;;;1.25;1.08;;;21.20;47.90;;;;;;5055200;28;20242;-55
2021/09/25 03:40:55;;;;;;;2.40;1.30;;;21.20;47.90;;;;;;5073883;28;20202;-50
2021/09/25 03:43:25;;;;;;;2.83;1.10;;;21.20;47.90;;;;;;5073455;28;20231;-48
2021/09/25 03:45:59;;;;;;;2.38;1.10;;;21.30;48.00;;;;;;5073139;28;20191;-53
2021/09/25 03:48:29;;;;;;;4.10;1.00;;;21.30;48.00;;;;;;5073935;28;20250;-53
2021/09/25 03:51:00;;;;;;;1.73;1.10;;;21.30;48.00;;;;;;5072918;28;20282;-51
2021/09/25 03:53:32;;;;;;;2.25;1.15;;;21.30;48.00;;;;;;5074067;28;20195;-56
2021/09/25 03:56:07;;;;;;;3.42;1.02;;;21.30;48.10;;;;;;5073125;28;20226;-47
2021/09/25 03:58:37;;;;;;;1.38;0.98;;;21.30;48.20;;;;;;5073199;28;20226;-47
2021/09/25 04:01:08;;;;;;;1.40;1.00;;;21.30;48.10;;;;;;5073083;28;20664;-56
2021/09/25 04:03:38;;;;;;;2.03;1.02;;;21.30;48.10;;;;;;5073705;28;20242;-55
2021/09/25 04:06:09;;;;;;;4.80;0.88;;;21.30;48.00;;;;;;5072948;28;20404;-58
2021/09/25 04:08:41;;;;;;;1.95;0.80;;;21.40;48.10;;;;;;5072638;28;20424;-50
2021/09/25 04:11:12;;;;;;;1.10;1.00;;;21.40;48.20;;;;;;5073510;28;20278;-54
2021/09/25 04:13:42;;;;;;;1.25;0.85;;;21.40;48.20;;;;;;5071164;28;20233;-46
2021/09/25 04:16:12;;;;;;;0.70;0.70;;;21.40;48.20;;;;;;5053717;28;20279;-57
2021/09/25 04:18:43;;;;;;;0.90;0.77;;;21.40;48.20;;;;;;5053529;28;20314;-50
2021/09/25 04:21:14;;;;;;;0.80;0.80;;;21.40;48.20;;;;;;5066945;28;20234;-51
2021/09/25 04:23:46;;;;;;;1.05;0.90;;;21.40;48.20;;;;;;5073300;28;20199;-47
2021/09/25 04:26:18;;;;;;;0.80;0.60;;;21.40;48.10;;;;;;5073074;28;20230;-50
2021/09/25 04:28:49;;;;;;;1.08;0.85;;;21.40;48.10;;;;;;5073126;28;20218;-49
2021/09/25 04:31:19;;;;;;;1.58;0.90;;;21.50;48.20;;;;;;5073611;28;20256;-47
2021/09/25 04:33:50;;;;;;;1.92;0.90;;;21.50;48.10;;;;;;5073524;28;20234;-45
2021/09/25 04:36:20;;;;;;;2.65;1.00;;;21.50;48.10;;;;;;5072665;28;20191;-54
2021/09/25 04:38:52;;;;;;;1.25;0.63;;;21.50;48.10;;;;;;5073406;28;20281;-47
2021/09/25 04:41:23;;;;;;;1.02;0.93;;;21.50;48.10;;;;;;5073285;28;20468;-46
2021/09/25 04:43:55;;;;;;;0.70;0.70;;;21.50;48.10;;;;;;5073445;28;20254;-47
2021/09/25 04:46:26;;;;;;;1.85;0.80;;;21.50;48.10;;;;;;5073322;28;20670;-48
2021/09/25 04:48:59;;;;;;;0.85;0.80;;;21.50;48.10;;;;;;5073079;28;20261;-55
2021/09/25 04:51:29;;;;;;;0.75;0.70;;;21.50;48.10;;;;;;5073004;28;20202;-56
2021/09/25 04:54:03;;;;;;;0.60;0.60;;;21.50;48.10;;;;;;5073428;28;20203;-47
2021/09/25 04:56:34;;;;;;;0.60;0.60;;;21.50;48.10;;;;;;5073139;28;20777;-52
2021/09/25 04:59:04;;;;;;;1.33;0.80;;;21.50;48.20;;;;;;5073078;28;20226;-46
2021/09/25 05:01:35;;;;;;;0.80;0.70;;;21.50;48.10;;;;;;5072935;28;20684;-50
2021/09/25 05:04:07;;;;;;;1.55;0.70;;;21.50;48.10;;;;;;5072795;28;20675;-47
2021/09/25 05:06:38;;;;;;;0.68;0.68;;;21.60;48.10;;;;;;5073009;28;20538;-57
2021/09/25 05:09:10;;;;;;;0.50;0.50;;;21.60;48.00;;;;;;5072963;28;20211;-46
2021/09/25 05:11:40;;;;;;;0.52;0.52;;;21.60;48.00;;;;;;5072651;28;20283;-46
2021/09/25 05:14:11;;;;;;;1.13;0.70;;;21.50;47.90;;;;;;5072882;28;20199;-47
2021/09/25 05:16:41;;;;;;;0.60;0.50;;;21.50;47.80;;;;;;5072884;28;20260;-48
2021/09/25 05:19:12;;;;;;;0.52;0.50;;;21.60;47.90;;;;;;5072244;28;20273;-54
2021/09/25 05:21:42;;;;;;;0.60;0.60;;;21.50;47.70;;;;;;5072274;28;20253;-48
2021/09/25 05:24:14;;;;;;;0.55;0.50;;;21.50;47.70;;;;;;5072506;28;20226;-49
2021/09/25 05:26:45;;;;;;;0.70;0.70;;;21.50;47.80;;;;;;5072420;28;20230;-47
2021/09/25 05:29:18;;;;;;;0.85;0.70;;;21.50;47.70;;;;;;5072149;28;20432;-48
2021/09/25 05:31:49;;;;;;;0.75;0.75;;;21.50;47.80;;;;;;5072139;28;20203;-51
2021/09/25 05:34:19;;;;;;;1.08;0.73;;;21.50;47.80;;;;;;5072526;28;20231;-50
2021/09/25 05:36:49;;;;;;;2.05;0.50;;;21.50;47.80;;;;;;5072661;28;20604;-52
2021/09/25 05:39:22;;;;;;;0.38;0.38;;;21.50;47.60;;;;;;5072045;28;20331;-46
2021/09/25 05:41:52;;;;;;;0.57;0.28;;;21.40;47.10;;;;;;5072006;28;20226;-48
2021/09/25 05:44:23;;;;;;;0.60;0.40;;;21.30;46.80;;;;;;5072253;28;20618;-58
2021/09/25 05:46:53;;;;;;;0.35;0.35;;;21.30;46.80;;;;;;5072230;28;20275;-60
2021/09/25 05:49:25;;;;;;;0.40;0.40;;;21.20;47.00;;;;;;5072177;28;20225;-47
2021/09/25 05:51:59;;;;;;;0.30;0.30;;;21.10;47.10;;;;;;5071799;28;20272;-51
2021/09/25 05:54:31;;;;;;;0.30;0.30;;;21.00;47.20;;;;;;5071922;28;20249;-48
2021/09/25 05:57:01;;;;;;;0.30;0.30;;;20.90;47.30;;;;;;5071849;28;20223;-47
2021/09/25 05:59:32;;;;;;;0.20;0.20;;;20.80;47.40;;;;;;5071841;28;20266;-53
2021/09/25 06:02:02;;;;;;;0.93;0.75;;;20.70;47.30;;;;;;5071930;28;20616;-48
2021/09/25 06:04:33;;;;;;;2.10;0.65;;;20.60;47.30;;;;;;5071673;28;20226;-50
2021/09/25 06:07:04;;;;;;;0.73;0.40;;;20.60;47.30;;;;;;5071158;28;20248;-50
2021/09/25 06:09:36;;;;;;;0.40;0.40;;;20.50;47.00;;;;;;5071295;28;20234;-45
2021/09/25 06:12:07;;;;;;;0.60;0.50;;;20.40;46.80;;;;;;5071260;28;20693;-46
2021/09/25 06:14:38;;;;;;;1.77;0.80;;;20.30;46.80;;;;;;5071777;28;20198;-48
2021/09/25 06:17:08;;;;;;;0.50;0.50;;;20.20;46.70;;;;;;5068627;28;20300;-48
2021/09/25 06:19:38;;;;;;;0.63;0.63;;;20.10;47.00;;;;;;5052641;28;20263;-47
2021/09/25 06:22:09;;;;;;;0.40;0.40;;;20.00;46.70;;;;;;5051564;28;20239;-48
2021/09/25 06:24:41;;;;;;;0.30;0.30;;;19.90;46.70;;;;;;5051393;28;20258;-47
2021/09/25 06:27:12;;;;;;;0.40;0.40;;;19.90;46.70;;;;;;5051062;28;20231;-50
2021/09/25 06:29:42;;;;;;;0.50;0.45;;;19.80;46.90;;;;;;5050801;28;20698;-50
2021/09/25 06:32:12;;;;;;;0.50;0.50;;;19.70;46.90;;;;;;5054174;28;20241;-49
2021/09/25 06:34:43;;;;;;;0.40;0.40;;;19.60;47.00;;;;;;5070867;28;20234;-45
2021/09/25 06:37:13;;;;;;;0.30;0.30;;;19.60;47.10;;;;;;5071041;28;20194;-50
2021/09/25 06:39:46;;;;;;;1.08;0.40;;;19.50;47.20;;;;;;5071201;28;20281;-52
2021/09/25 06:42:19;;;;;;;0.20;0.20;;;19.50;47.40;;;;;;5071569;28;20229;-53
2021/09/25 06:44:50;;;;;;;0.57;0.30;;;19.40;47.50;;;;;;5070344;28;20312;-49
2021/09/25 06:47:20;;;;;;;0.30;0.30;;;19.40;47.60;;;;;;5070257;28;20659;-46
2021/09/25 06:49:51;;;;;;;0.50;0.50;;;19.40;47.70;;;;;;5070315;28;20230;-51
2021/09/25 06:52:21;;;;;;;1.17;0.50;;;19.40;47.80;;;;;;5071069;28;20255;-50
2021/09/25 06:54:54;;;;;;;0.80;0.32;;;19.40;48.00;;;;;;5070576;28;20245;-47
2021/09/25 06:57:24;;;;;;;0.73;0.40;;;19.30;48.00;;;;;;5070350;28;20685;-51
2021/09/25 06:59:55;;;;;;;0.98;0.50;;;19.30;48.10;;;;;;5071559;28;20276;-53
2021/09/25 07:02:25;;;;;;;0.80;0.50;;;19.30;48.30;;;;;;5071409;28;20286;-47
2021/09/25 07:04:58;;;;;;;0.30;0.30;;;19.30;48.10;;;;;;5071413;28;20234;-50
2021/09/25 07:07:29;;;;;;;0.30;0.30;;;19.30;48.00;;;;;;5070850;28;20218;-47
2021/09/25 07:10:01;;;;;;;0.50;0.30;;;19.30;48.00;;;;;;5071096;28;20234;-46
2021/09/25 07:12:32;;;;;;;0.40;0.30;;;19.30;47.90;;;;;;5071325;28;20248;-47
2021/09/25 07:15:02;;;;;;;0.35;0.30;;;19.30;47.80;;;;;;5075095;28;20686;-51
2021/09/25 07:17:32;;;;;;;0.50;0.30;;;19.30;47.80;;;;;;5075106;28;20690;-48
2021/09/25 07:20:03;;;;;;;0.55;0.40;;;19.30;47.80;;;;;;5074622;28;20640;-46
2021/09/25 07:22:33;;;;;;;0.47;0.47;;;19.20;47.70;;;;;;5074701;28;20662;-55
2021/09/25 07:25:06;;;;;;;0.40;0.40;;;19.20;47.60;;;;;;5074803;28;20611;-51
2021/09/25 07:27:36;;;;;;;0.43;0.40;;;19.20;47.40;;;;;;5074270;28;20630;-49
2021/09/25 07:30:07;;;;;;;0.63;0.60;;;19.10;47.40;;;;;;5074678;28;20237;-46
2021/09/25 07:32:38;;;;;;;0.80;0.50;;;19.00;47.30;;;;;;5074797;28;20234;-47
2021/09/25 07:35:09;;;;;;;1.27;0.50;;;19.00;47.20;;;;;;5074747;28;20479;-54
2021/09/25 07:37:39;;;;;;;0.60;0.60;;;19.00;47.20;;;;;;5074708;28;20339;-50
2021/09/25 07:40:12;;;;;;;0.50;0.50;;;18.90;47.10;;;;;;5073785;28;20214;-49
2021/09/25 07:42:43;;;;;;;0.60;0.60;;;18.90;47.20;;;;;;5074075;28;20679;-48
2021/09/25 07:45:13;;;;;;;1.95;0.52;;;18.90;47.10;;;;;;5074275;28;20234;-52
2021/09/25 07:47:44;;;;;;;1.55;0.55;;;18.80;47.00;;;;;;5074169;28;20351;-48
2021/09/25 07:50:14;;;;;;;1.48;0.50;;;18.80;46.80;;;;;;5074467;28;20230;-52
2021/09/25 07:52:45;;;;;;;0.57;0.50;;;18.80;46.50;;;;;;5073895;28;20317;-54
2021/09/25 07:55:17;;;;;;;0.40;0.40;;;18.70;46.40;;;;;;5074284;28;20226;-56
2021/09/25 07:57:48;;;;;;;0.45;0.32;;;18.70;46.40;;;;;;5074055;28;20253;-46
2021/09/25 08:00:19;;;;;;;1.10;0.40;;;18.60;46.20;;;;;;5073989;28;20222;-48
2021/09/25 08:02:49;;;;;;;1.02;0.40;;;18.60;46.20;;;;;;5074102;28;20229;-46
2021/09/25 08:05:20;;;;;;;0.65;0.50;;;18.60;46.20;;;;;;5073821;28;20624;-52
2021/09/25 08:07:50;;;;;;;0.50;0.40;;;18.60;46.10;;;;;;5073745;28;20266;-49
2021/09/25 08:10:22;;;;;;;5.40;4.15;;;18.60;46.00;;;;;;5074027;28;20320;-47
2021/09/25 08:12:53;;;;;;;33.78;22.27;;;18.50;46.20;;;;;;5074146;28;20234;-47
2021/09/25 08:15:23;;;;;;;29.55;22.10;;;18.60;47.90;;;;;;5074277;28;20245;-58
2021/09/25 08:17:56;;;;;;;25.17;18.75;;;18.60;49.40;;;;;;5074079;28;20230;-55
2021/09/25 08:20:26;;;;;;;25.17;18.38;;;18.70;50.10;;;;;;5073184;28;20223;-57
2021/09/25 08:22:59;;;;;;;26.38;18.17;;;18.70;50.70;;;;;;5070049;28;20233;-48
2021/09/25 08:25:31;;;;;;;24.50;17.77;;;18.80;51.30;;;;;;5072787;28;20272;-52
2021/09/25 08:28:02;;;;;;;28.35;17.05;;;18.90;51.50;;;;;;5073332;28;20294;-50
2021/09/25 08:30:32;;;;;;;23.58;16.17;;;19.00;51.40;;;;;;5073181;28;20256;-47
2021/09/25 08:33:03;;;;;;;22.80;15.48;;;19.00;51.30;;;;;;5067771;28;20731;-48
2021/09/25 08:35:33;;;;;;;25.58;15.57;;;19.00;51.10;;;;;;5071072;28;20195;-51
2021/09/25 08:38:04;;;;;;;20.08;14.00;;;19.10;50.90;;;;;;5070671;28;20215;-50
2021/09/25 08:40:36;;;;;;;19.67;14.88;;;19.20;50.70;;;;;;5061321;28;20335;-46
2021/09/25 08:43:06;;;;;;;20.52;15.38;;;19.20;50.50;;;;;;5050226;28;20261;-50
2021/09/25 08:45:37;;;;;;;22.23;15.20;;;19.30;50.40;;;;;;5051905;28;20260;-49
2021/09/25 08:48:08;;;;;;;19.80;14.35;;;19.30;50.20;;;;;;5051182;28;20272;-50
2021/09/25 08:50:38;;;;;;;23.85;14.75;;;19.30;50.70;;;;;;5052429;28;20679;-48
2021/09/25 08:53:08;;;;;;;21.85;15.07;;;19.30;50.00;;;;;;5067680;28;20370;-46
2021/09/25 08:55:41;;;;;;;18.25;13.38;;;19.40;49.80;;;;;;5071989;28;20235;-46
2021/09/25 08:58:13;;;;;;;21.10;13.23;;;19.40;49.80;;;;;;5071581;28;20250;-48
2021/09/25 09:00:44;;;;;;;19.58;12.82;;;19.40;49.70;;;;;;5071802;28;20462;-46
2021/09/25 09:03:23;;;;;;;17.67;12.98;;;19.40;49.50;;;;;;5063212;28;20321;-46
2021/09/25 09:05:55;;;;;;;22.33;12.88;;;19.40;49.50;;;;;;5071332;28;20248;-46
2021/09/25 09:08:26;;;;;;;18.55;12.27;;;19.40;49.40;;;;;;5071729;28;20214;-50
2021/09/25 09:10:58;;;;;;;16.70;12.13;;;19.40;49.40;;;;;;5071508;28;20281;-47
2021/09/25 09:13:29;;;;;;;17.83;12.15;;;19.40;49.40;;;;;;5071962;28;20230;-48
2021/09/25 09:16:02;;;;;;;14.52;12.18;;;19.40;49.50;;;;;;5070117;28;20230;-54
2021/09/25 09:18:32;;;;;;;18.95;12.10;;;19.40;49.40;;;;;;5067004;28;20272;-48
2021/09/25 09:21:13;;;;;;;16.20;11.50;;;19.40;49.30;;;;;;5068785;28;20607;-50
2021/09/25 09:23:45;;;;;;;16.35;11.98;;;19.40;49.20;;;;;;5070342;28;20244;-48
2021/09/25 09:26:21;;;;;;;18.30;11.70;;;19.40;49.20;;;;;;5068362;28;20682;-47
2021/09/25 09:28:53;;;;;;;19.42;11.77;;;19.40;49.10;;;;;;5071810;28;20246;-47
2021/09/25 09:31:25;;;;;;;21.60;11.73;;;19.40;49.10;;;;;;5070281;28;20238;-49
2021/09/25 09:33:58;;;;;;;17.60;10.55;;;19.30;49.00;;;;;;5070345;28;20230;-56
2021/09/25 09:36:30;;;;;;;15.80;11.05;;;19.30;49.00;;;;;;5069032;28;20296;-47
2021/09/25 09:39:11;;;;;;;18.73;11.98;;;19.30;48.90;;;;;;5070748;28;20265;-48
2021/09/25 09:41:44;;;;;;;18.88;10.88;;;19.30;48.90;;;;;;5062388;28;20200;-47
2021/09/25 09:44:15;;;;;;;15.85;10.40;;;19.30;48.90;;;;;;5072159;22;20223;-53
2021/09/25 09:46:46;;;;;;;18.63;11.15;;;19.30;48.80;;;;;;5049759;28;20241;-56
2021/09/25 09:49:18;;;;;;;13.82;9.80;;;19.30;48.80;;;;;;5050757;28;20251;-59
2021/09/25 09:51:52;;;;;;;15.38;10.63;;;19.30;48.80;;;;;;5019779;28;20506;-59
2021/09/25 09:54:24;;;;;;;14.07;9.93;;;19.20;48.80;;;;;;5032125;28;20238;-59
2021/09/25 09:56:57;;;;;;;14.73;9.48;;;19.20;48.80;;;;;;5032423;28;20242;-55
2021/09/25 09:59:28;;;;;;;14.88;9.35;;;19.20;48.80;;;;;;5031957;28;20259;-59
2021/09/25 10:01:58;;;;;;;15.85;9.73;;;19.20;48.70;;;;;;5031384;28;20243;-61
2021/09/25 10:04:28;;;;;;;16.40;10.40;;;19.20;48.70;;;;;;5031743;28;20287;-60
2021/09/25 10:06:59;;;;;;;13.48;9.82;;;19.20;48.70;;;;;;5032173;28;20200;-58
2021/09/25 10:09:29;;;;;;;12.73;10.27;;;19.20;48.70;;;;;;5031608;28;20299;-60
2021/09/25 10:12:03;;;;;;;14.27;9.38;;;19.20;48.70;;;;;;5031675;28;20282;-58
2021/09/25 10:14:34;;;;;;;13.00;9.40;;;19.20;48.70;;;;;;5028349;28;20232;-59
2021/09/25 10:17:05;;;;;;;13.32;8.65;;;19.10;48.60;;;;;;5031247;28;20231;-61
2021/09/25 10:19:35;;;;;;;12.27;8.82;;;19.10;48.60;;;;;;5031717;28;20196;-59
2021/09/25 10:22:08;;;;;;;15.15;9.30;;;19.10;48.60;;;;;;5031743;28;20228;-60
2021/09/25 10:24:39;;;;;;;12.15;9.15;;;19.10;48.60;;;;;;5031815;28;20293;-60
2021/09/25 10:27:11;;;;;;;13.88;8.77;;;19.10;48.60;;;;;;5031461;28;20232;-60
2021/09/25 10:29:46;;;;;;;14.48;9.00;;;19.10;48.60;;;;;;5031205;28;20199;-55
2021/09/25 10:32:21;;;;;;;12.73;8.30;;;19.00;48.60;;;;;;5031331;28;20242;-55
2021/09/25 10:35:06;;;;;;;11.00;8.10;;;19.00;48.70;;;;;;5031532;28;20251;-57
2021/09/25 10:37:37;;;;;;;14.45;8.50;;;19.00;48.70;;;;;;5031356;28;20251;-61
2021/09/25 10:40:09;;;;;;;11.57;7.88;;;19.00;48.70;;;;;;5027690;28;20308;-60
2021/09/25 10:42:46;;;;;;;12.27;7.68;;;19.00;48.70;;;;;;5019631;28;20499;-60
2021/09/25 10:45:24;;;;;;;11.45;8.10;;;19.00;48.60;;;;;;5019357;28;20279;-55
2021/09/25 10:48:12;;;;;;;10.48;7.80;;;19.00;48.60;;;;;;5018261;28;20223;-58
2021/09/25 10:50:44;;;;;;;10.82;8.27;;;18.90;48.60;;;;;;5020391;28;20624;-60
2021/09/25 10:53:15;;;;;;;12.90;8.23;;;18.90;48.60;;;;;;5022124;28;20192;-57
2021/09/25 10:55:46;;;;;;;11.27;8.20;;;18.90;48.60;;;;;;5022689;28;20283;-60
2021/09/25 10:58:34;;;;;;;12.70;7.45;;;18.90;48.60;;;;;;5018575;28;20310;-59
2021/09/25 11:01:06;;;;;;;9.05;7.25;;;18.90;48.60;;;;;;5019959;28;20323;-57
2021/09/25 11:04:15;;;;;;;9.02;7.38;;;18.90;48.60;;;;;;5027862;28;20234;-59
2021/09/25 11:06:51;;;;;;;9.15;7.45;;;18.90;48.70;;;;;;5030875;28;20236;-57
2021/09/25 11:09:32;;;;;;;9.27;7.03;;;18.80;48.60;;;;;;5031043;28;20223;-60
2021/09/25 11:12:07;;;;;;;10.00;7.53;;;18.80;48.60;;;;;;5031333;28;20228;-60
2021/09/25 11:14:42;;;;;;;8.18;6.80;;;18.80;48.60;;;;;;5030866;28;20238;-60
2021/09/25 11:17:27;;;;;;;9.48;7.13;;;18.80;48.70;;;;;;5030804;28;20239;-52
2021/09/25 11:19:58;;;;;;;10.48;6.88;;;18.80;48.70;;;;;;5031091;28;20560;-59
2021/09/25 11:22:30;;;;;;;7.78;6.60;;;18.80;48.70;;;;;;5031296;28;20239;-58
2021/09/25 11:25:01;;;;;;;9.52;6.25;;;18.70;48.70;;;;;;5030588;28;20287;-58
2021/09/25 11:27:33;;;;;;;8.77;6.10;;;18.70;48.70;;;;;;5030441;28;20255;-58
2021/09/25 11:30:15;;;;;;;8.63;6.53;;;18.70;48.70;;;;;;5030950;28;20235;-57
2021/09/25 11:32:47;;;;;;;8.40;6.65;;;18.70;48.60;;;;;;5031029;28;20633;-60
2021/09/25 11:35:18;;;;;;;8.65;6.40;;;18.70;48.60;;;;;;5030674;28;20232;-60
2021/09/25 11:38:05;;;;;;;7.78;5.80;;;18.60;48.60;;;;;;5030579;28;20305;-60
2021/09/25 11:40:37;;;;;;;7.90;6.10;;;18.70;48.70;;;;;;5030679;28;20658;-60
2021/09/25 11:43:08;;;;;;;8.88;6.28;;;18.60;48.60;;;;;;5031092;28;20611;-59
2021/09/25 11:45:40;;;;;;;7.00;5.72;;;18.60;48.70;;;;;;5031416;28;20236;-60
2021/09/25 11:48:11;;;;;;;7.40;5.53;;;18.60;48.70;;;;;;5030431;28;20251;-60
2021/09/25 11:50:42;;;;;;;6.55;5.85;;;18.60;48.70;;;;;;5030611;28;20236;-59
2021/09/25 11:53:12;;;;;;;8.60;6.25;;;18.60;48.70;;;;;;5030554;28;20291;-52
2021/09/25 11:55:43;;;;;;;7.80;6.35;;;18.50;48.70;;;;;;5030612;28;20235;-60
2021/09/25 11:58:14;;;;;;;6.75;5.45;;;18.50;48.70;;;;;;5030737;28;20255;-58
2021/09/25 12:00:48;;;;;;;7.13;5.65;;;18.50;49.30;;;;;;5033839;28;20647;-61
2021/09/25 12:03:19;;;;;;;7.05;5.82;;;18.50;48.80;;;;;;5033681;28;20686;-51
2021/09/25 12:05:50;;;;;;;6.57;5.50;;;18.50;48.70;;;;;;5033782;28;20416;-60
2021/09/25 12:08:22;;;;;;;6.88;5.63;;;18.50;48.70;;;;;;5033434;28;20316;-60
2021/09/25 12:10:52;;;;;;;6.95;5.28;;;18.40;48.70;;;;;;5034038;28;20192;-60
2021/09/25 12:13:23;;;;;;;6.40;5.28;;;18.40;48.70;;;;;;5034162;28;20236;-60
2021/09/25 12:15:56;;;;;;;6.80;5.38;;;18.40;48.70;;;;;;5033950;28;20232;-59
2021/09/25 12:18:26;;;;;;;7.15;5.40;;;18.40;48.80;;;;;;5034202;28;20256;-60
2021/09/25 12:21:00;;;;;;;6.05;5.22;;;18.40;48.70;;;;;;5032551;28;20654;-61
2021/09/25 12:23:32;;;;;;;6.45;5.35;;;18.30;49.40;;;;;;5033038;28;20280;-57
2021/09/25 12:26:02;;;;;;;6.82;4.85;;;18.30;48.80;;;;;;5032597;28;20235;-60
2021/09/25 12:28:35;;;;;;;6.65;5.15;;;18.30;48.80;;;;;;5032850;28;20647;-59
2021/09/25 12:31:08;;;;;;;8.23;5.78;;;18.30;48.80;;;;;;5033740;28;20238;-58
2021/09/25 12:33:38;;;;;;;5.88;5.10;;;18.30;48.80;;;;;;5033629;28;20207;-59
2021/09/25 12:36:11;;;;;;;6.53;5.43;;;18.30;48.80;;;;;;5033304;28;20284;-60
2021/09/25 12:38:43;;;;;;;6.07;5.05;;;18.20;48.80;;;;;;5033193;28;20251;-58
2021/09/25 12:41:14;;;;;;;6.80;4.65;;;18.20;48.80;;;;;;5033475;28;20259;-56
2021/09/25 12:43:45;;;;;;;4.90;4.40;;;18.20;48.80;;;;;;5033666;28;20228;-60
2021/09/25 12:46:28;;;;;;;6.10;4.90;;;18.20;48.80;;;;;;5033372;28;20297;-61
2021/09/25 12:49:06;;;;;;;5.68;4.65;;;18.20;48.80;;;;;;5033441;28;20251;-58
2021/09/25 12:51:37;;;;;;;4.95;4.35;;;18.20;48.80;;;;;;5033515;28;20238;-58
2021/09/25 12:54:08;;;;;;;5.32;4.35;;;18.20;48.90;;;;;;5033680;28;20227;-59
2021/09/25 12:56:49;;;;;;;5.20;4.43;;;18.10;48.80;;;;;;5033301;28;20234;-60
2021/09/25 12:59:20;;;;;;;8.27;5.22;;;18.10;48.90;;;;;;5032975;28;20343;-59
2021/09/25 13:01:54;;;;;;;5.15;4.45;;;18.10;48.90;;;;;;5033373;28;20266;-57
2021/09/25 13:04:26;;;;;;;5.75;4.00;;;18.10;48.90;;;;;;5032859;28;20286;-60
2021/09/25 13:06:56;;;;;;;4.90;4.10;;;18.10;48.90;;;;;;5032662;28;20578;-57